createdAt,value
2019-04-21T00:02:32.514Z,46.33
2019-04-21T00:05:24.740Z,39.33
2019-04-21T00:07:50.741Z,32.60
2019-04-21T00:10:27.007Z,30.48
2019-04-21T00:12:56.224Z,38.90
2019-04-21T00:15:27.641Z,35.13
2019-04-21T00:17:57.053Z,33.70
2019-04-21T00:20:44.194Z,43.27
2019-04-21T00:23:24.297Z,45.93
2019-04-21T00:25:59.136Z,44.87
2019-04-21T00:28:42.804Z,37.40
2019-04-21T00:31:12.627Z,42.03
2019-04-21T00:33:28.859Z,35.97
2019-04-21T00:36:05.338Z,35.80
2019-04-21T00:39:09.968Z,43.90
2019-04-21T00:41:29.605Z,49.60
2019-04-21T00:43:55.736Z,56.37
2019-04-21T00:46:31.166Z,62.57
2019-04-21T00:51:51.115Z,50.37
2019-04-21T00:54:20.616Z,51.07
2019-04-21T00:56:56.237Z,50.73
2019-04-21T00:59:25.655Z,52.70
2019-04-21T01:01:58.272Z,50.47
2019-04-21T01:04:33.797Z,47.37
2019-04-21T01:07:07.181Z,50.03
2019-04-21T01:09:31.709Z,46.23
2019-04-21T01:12:14.830Z,47.13
2019-04-21T01:15:13.440Z,47.70
2019-04-21T01:17:38.297Z,50.33
2019-04-21T01:20:03.970Z,47.63
2019-04-21T01:22:24.988Z,46.40
2019-04-21T01:25:04.575Z,47.57
2019-04-21T01:27:52.121Z,42.90
2019-04-21T01:30:23.736Z,37.47
2019-04-21T01:32:59.503Z,37.57
2019-04-21T01:35:35.010Z,59.03
2019-04-21T01:38:02.010Z,66.03
2019-04-21T01:40:43.335Z,51.77
2019-04-21T01:45:34.230Z,56.53
2019-04-21T01:48:05.157Z,48.63
2019-04-21T01:50:41.132Z,37.27
2019-04-21T01:53:30.705Z,35.20
2019-04-21T01:56:16.924Z,32.13
2019-04-21T01:58:42.915Z,36.90
2019-04-21T02:01:27.052Z,40.90
2019-04-21T02:03:58.264Z,40.47
2019-04-21T02:06:45.682Z,38.00
2019-04-21T02:09:06.818Z,39.97
2019-04-21T02:11:37.318Z,37.17
2019-04-21T02:14:19.601Z,45.53
2019-04-21T02:16:49.598Z,53.67
2019-04-21T02:19:13.764Z,44.50
2019-04-21T02:21:43.505Z,45.17
2019-04-21T02:24:35.154Z,41.43
2019-04-21T02:27:01.709Z,40.90
2019-04-21T02:29:34.784Z,43.60
2019-04-21T02:32:14.810Z,41.27
2019-04-21T02:40:08.412Z,36.77
2019-04-21T02:42:32.964Z,36.80
2019-04-21T02:45:00.354Z,41.03
2019-04-21T02:47:56.901Z,53.27
2019-04-21T02:50:31.523Z,43.17
2019-04-21T02:52:43.938Z,38.10
2019-04-21T02:55:19.459Z,38.30
2019-04-21T02:57:59.585Z,68.70
2019-04-21T03:03:25.698Z,69.70
2019-04-21T03:05:51.168Z,55.53
2019-04-21T03:08:34.253Z,47.90
2019-04-21T03:10:59.287Z,41.73
2019-04-21T03:16:23.023Z,34.67
2019-04-21T03:21:38.618Z,33.87
2019-04-21T03:24:09.501Z,27.60
2019-04-21T03:27:01.511Z,26.60
2019-04-21T03:29:22.394Z,26.47
2019-04-21T03:32:13.979Z,26.40
2019-04-21T03:39:36.643Z,24.67
2019-04-21T03:42:19.594Z,19.77
2019-04-21T03:47:15.413Z,20.53
2019-04-21T03:49:47.429Z,21.50
2019-04-21T03:52:27.800Z,24.77
2019-04-21T03:55:44.881Z,25.33
2019-04-21T03:58:04.799Z,25.07
2019-04-21T04:00:42.455Z,25.63
2019-04-21T04:03:32.371Z,22.37
2019-04-21T04:11:19.689Z,20.63
2019-04-21T04:13:55.605Z,24.10
2019-04-21T04:16:52.178Z,20.67
2019-04-21T04:24:13.353Z,21.87
2019-04-21T04:26:57.399Z,23.37
2019-04-21T04:29:24.189Z,26.00
2019-04-21T04:32:00.739Z,56.40
2019-04-21T04:34:40.541Z,27.63
2019-04-21T04:37:12.334Z,28.03
2019-04-21T04:39:50.142Z,36.87
2019-04-21T04:42:27.069Z,24.80
2019-04-21T04:47:32.514Z,30.73
2019-04-21T04:52:34.254Z,28.53
2019-04-21T04:57:49.073Z,36.30
2019-04-21T05:00:19.875Z,31.17
2019-04-21T05:02:46.370Z,34.73
2019-04-21T05:05:19.454Z,38.53
2019-04-21T05:07:57.888Z,40.37
2019-04-21T05:10:31.469Z,39.03
2019-04-21T05:12:53.123Z,27.50
2019-04-21T05:15:42.200Z,21.47
2019-04-21T05:20:29.880Z,27.47
2019-04-21T05:23:02.031Z,32.07
2019-04-21T05:25:23.704Z,25.50
2019-04-21T05:27:57.807Z,26.43
2019-04-21T05:30:58.379Z,26.33
2019-04-21T05:33:27.673Z,29.20
2019-04-21T05:36:15.690Z,27.70
2019-04-21T05:38:47.692Z,30.60
2019-04-21T05:41:17.532Z,26.43
2019-04-21T05:43:57.503Z,25.03
2019-04-21T05:46:32.288Z,24.47
2019-04-21T05:49:03.473Z,25.27
2019-04-21T05:51:35.332Z,26.93
2019-04-21T05:54:52.939Z,29.33
2019-04-21T05:57:05.800Z,20.77
2019-04-21T05:59:41.772Z,22.33
2019-04-21T06:09:57.311Z,31.53
2019-04-21T06:12:29.762Z,26.47
2019-04-21T06:15:00.941Z,23.83
2019-04-21T06:20:35.342Z,23.60
2019-04-21T06:23:03.443Z,21.60
2019-04-21T06:25:48.670Z,17.87
2019-04-21T06:28:15.761Z,16.33
2019-04-21T06:30:48.632Z,19.77
2019-04-21T06:33:19.660Z,18.00
2019-04-21T06:38:54.391Z,14.87
2019-04-21T06:41:28.125Z,15.80
2019-04-21T06:44:01.461Z,18.53
2019-04-21T06:46:35.543Z,20.10
2019-04-21T06:49:03.728Z,19.93
2019-04-21T06:51:42.377Z,17.93
2019-04-21T06:54:17.473Z,15.73
2019-04-21T06:57:00.686Z,15.60
2019-04-21T06:59:13.444Z,16.50
2019-04-21T07:02:13.400Z,17.63
2019-04-21T07:04:39.566Z,17.93
2019-04-21T07:07:08.316Z,16.37
2019-04-21T07:09:45.471Z,15.17
2019-04-21T07:12:13.901Z,16.93
2019-04-21T07:14:49.482Z,16.97
2019-04-21T07:20:12.165Z,15.20
2019-04-21T07:25:28.415Z,15.47
2019-04-21T07:28:02.992Z,15.20
2019-04-21T07:33:32.917Z,16.93
2019-04-21T07:35:43.204Z,14.50
2019-04-21T07:38:16.750Z,12.80
2019-04-21T07:40:45.762Z,14.60
2019-04-21T07:43:24.636Z,12.80
2019-04-21T07:45:58.136Z,11.87
2019-04-21T07:48:43.257Z,14.00
2019-04-21T07:51:25.349Z,9.53
2019-04-21T07:54:06.305Z,9.57
2019-04-21T07:56:19.134Z,8.40
2019-04-21T08:01:50.723Z,8.17
2019-04-21T08:04:33.511Z,9.53
2019-04-21T08:06:46.498Z,9.60
2019-04-21T08:09:12.105Z,11.63
2019-04-21T08:11:44.192Z,9.60
2019-04-21T08:14:24.311Z,11.00
2019-04-21T08:16:57.707Z,11.17
2019-04-21T08:19:26.242Z,10.17
2019-04-21T08:22:09.470Z,8.30
2019-04-21T08:24:37.583Z,9.23
2019-04-21T08:27:14.179Z,7.90
2019-04-21T08:29:46.240Z,7.10
2019-04-21T08:32:31.717Z,10.80
2019-04-21T08:35:09.504Z,10.73
2019-04-21T08:37:24.180Z,9.67
2019-04-21T08:40:09.389Z,7.47
2019-04-21T08:42:43.239Z,9.33
2019-04-21T08:45:25.457Z,7.43
2019-04-21T08:50:25.354Z,7.27
2019-04-21T08:55:40.000Z,7.23
2019-04-21T08:58:41.434Z,5.93
2019-04-21T09:01:23.816Z,7.03
2019-04-21T09:06:58.956Z,5.33
2019-04-21T09:14:28.754Z,6.40
2019-04-21T09:16:57.753Z,6.00
2019-04-21T09:19:44.296Z,6.67
2019-04-21T09:22:07.125Z,6.50
2019-04-21T09:24:42.807Z,6.17
2019-04-21T09:27:08.375Z,6.30
2019-04-21T09:29:30.946Z,5.90
2019-04-21T09:32:01.428Z,6.33
2019-04-21T09:34:40.038Z,8.90
2019-04-21T09:37:23.565Z,8.17
2019-04-21T09:39:48.076Z,6.47
2019-04-21T09:42:16.756Z,8.35
2019-04-21T09:44:55.217Z,5.22
2019-04-21T09:47:33.611Z,5.33
2019-04-21T09:50:02.755Z,4.57
2019-04-21T09:55:13.465Z,6.20
2019-04-21T10:00:21.101Z,5.87
2019-04-21T10:02:56.686Z,5.17
2019-04-21T10:05:25.203Z,4.55
2019-04-21T10:07:58.265Z,10.43
2019-04-21T10:10:29.742Z,8.78
2019-04-21T10:13:03.004Z,7.03
2019-04-21T10:15:35.420Z,7.55
2019-04-21T10:18:17.244Z,5.58
2019-04-21T10:20:51.267Z,6.12
2019-04-21T10:23:21.247Z,7.47
2019-04-21T10:28:37.174Z,6.60
2019-04-21T10:31:09.052Z,6.87
2019-04-21T10:33:40.177Z,8.68
2019-04-21T10:36:15.096Z,4.37
2019-04-21T10:38:51.568Z,5.78
2019-04-21T10:41:21.648Z,5.87
2019-04-21T10:43:53.375Z,8.23
2019-04-21T10:46:28.766Z,4.97
2019-04-21T10:49:01.590Z,5.90
2019-04-21T10:51:35.166Z,4.67
2019-04-21T10:54:08.200Z,5.12
2019-04-21T10:56:43.817Z,4.20
2019-04-21T10:59:14.716Z,4.78
2019-04-21T11:01:47.078Z,6.17
2019-04-21T11:04:29.645Z,3.27
2019-04-21T11:07:06.795Z,4.58
2019-04-21T11:09:31.847Z,5.17
2019-04-21T11:12:02.364Z,3.72
2019-04-21T11:14:33.802Z,4.83
2019-04-21T11:17:06.060Z,6.30
2019-04-21T11:19:43.018Z,5.47
2019-04-21T11:22:17.051Z,5.20
2019-04-21T11:24:51.136Z,6.92
2019-04-21T11:27:22.632Z,4.97
2019-04-21T11:29:54.177Z,3.47
2019-04-21T11:32:25.266Z,4.67
2019-04-21T11:34:57.021Z,3.70
2019-04-21T11:37:30.527Z,5.58
2019-04-21T11:40:08.554Z,5.83
2019-04-21T11:42:37.857Z,4.97
2019-04-21T11:45:10.504Z,4.22
2019-04-21T11:47:46.079Z,5.78
2019-04-21T11:50:18.952Z,3.33
2019-04-21T11:52:52.821Z,4.40
2019-04-21T11:55:36.753Z,4.25
2019-04-21T11:58:03.538Z,4.22
2019-04-21T12:00:35.843Z,3.42
2019-04-21T12:03:06.018Z,4.35
2019-04-21T12:05:39.500Z,3.30
2019-04-21T12:08:23.342Z,2.98
2019-04-21T12:10:45.118Z,4.05
2019-04-21T12:13:20.391Z,5.00
2019-04-21T12:15:52.711Z,3.35
2019-04-21T12:18:36.714Z,4.45
2019-04-21T12:21:07.825Z,3.55
2019-04-21T12:23:40.450Z,7.12
2019-04-21T12:26:11.949Z,3.05
2019-04-21T12:28:45.874Z,3.42
2019-04-21T12:31:21.215Z,2.67
2019-04-21T12:33:52.388Z,3.92
2019-04-21T12:39:12.875Z,3.55
2019-04-21T12:41:48.889Z,2.62
2019-04-21T12:44:24.315Z,6.97
2019-04-21T12:46:58.111Z,10.32
2019-04-21T12:49:33.602Z,7.20
2019-04-21T12:52:07.535Z,2.45
2019-04-21T12:54:42.103Z,3.70
2019-04-21T12:57:13.737Z,2.25
2019-04-21T12:59:46.662Z,2.30
2019-04-21T13:02:19.881Z,5.25
2019-04-21T13:07:43.621Z,4.50
2019-04-21T13:10:20.225Z,2.43
2019-04-21T13:12:54.263Z,4.00
2019-04-21T13:15:27.352Z,2.60
2019-04-21T13:17:58.491Z,3.40
2019-04-21T13:20:36.116Z,3.27
2019-04-21T13:23:08.113Z,2.40
2019-04-21T13:25:39.358Z,2.82
2019-04-21T13:28:10.452Z,2.40
2019-04-21T13:30:44.881Z,1.87
2019-04-21T13:33:16.828Z,2.90
2019-04-21T13:35:50.915Z,1.90
2019-04-21T13:38:34.579Z,4.42
2019-04-21T13:41:32.750Z,2.15
2019-04-21T13:43:53.024Z,2.12
2019-04-21T13:46:27.098Z,1.70
2019-04-21T13:49:01.316Z,1.90
2019-04-21T13:51:34.557Z,1.82
2019-04-21T13:54:07.910Z,22.52
2019-04-21T13:56:42.290Z,2.10
2019-04-21T13:59:15.978Z,8.00
2019-04-21T14:01:47.878Z,2.85
2019-04-21T14:04:18.057Z,2.35
2019-04-21T14:06:50.070Z,4.33
2019-04-21T14:09:34.220Z,1.57
2019-04-21T14:11:57.108Z,4.95
2019-04-21T14:14:34.452Z,2.35
2019-04-21T14:17:08.581Z,1.72
2019-04-21T14:19:39.754Z,3.10
2019-04-21T14:22:11.908Z,4.40
2019-04-21T14:24:43.782Z,1.90
2019-04-21T14:27:16.468Z,1.92
2019-04-21T14:29:49.351Z,8.88
2019-04-21T14:32:22.432Z,2.20
2019-04-21T14:34:54.183Z,1.80
2019-04-21T14:37:26.584Z,15.18
2019-04-21T14:40:06.738Z,3.52
2019-04-21T14:42:33.918Z,2.72
2019-04-21T14:45:05.126Z,1.70
2019-04-21T14:47:40.042Z,3.52
2019-04-21T14:50:15.524Z,5.15
2019-04-21T14:52:46.860Z,2.52
2019-04-21T14:55:20.803Z,2.45
2019-04-21T14:57:51.557Z,7.05
2019-04-21T15:00:22.892Z,2.30
2019-04-21T15:02:57.916Z,2.35
2019-04-21T15:05:31.331Z,2.47
2019-04-21T15:08:04.627Z,3.20
2019-04-21T15:10:35.195Z,9.10
2019-04-21T15:13:07.737Z,3.67
2019-04-21T15:15:39.436Z,3.27
2019-04-21T15:18:10.505Z,4.67
2019-04-21T15:20:47.322Z,2.60
2019-04-21T15:23:25.237Z,4.72
2019-04-21T15:25:57.086Z,5.08
2019-04-21T15:28:33.616Z,1.98
2019-04-21T15:31:03.145Z,2.15
2019-04-21T15:33:35.043Z,2.83
2019-04-21T15:36:07.113Z,3.83
2019-04-21T15:38:40.138Z,2.33
2019-04-21T15:41:12.746Z,7.20
2019-04-21T15:43:46.728Z,3.17
2019-04-21T15:46:18.525Z,6.50
2019-04-21T15:48:55.139Z,6.40
2019-04-21T15:51:29.639Z,3.37
2019-04-21T15:54:02.620Z,3.00
2019-04-21T15:56:42.684Z,2.80
2019-04-21T15:59:17.220Z,2.17
2019-04-21T16:01:52.501Z,4.23
2019-04-21T16:04:25.445Z,2.83
2019-04-21T16:06:57.542Z,6.17
2019-04-21T16:09:31.197Z,4.93
2019-04-21T16:12:09.545Z,3.00
2019-04-21T16:14:40.804Z,5.60
2019-04-21T16:17:15.170Z,2.50
2019-04-21T16:19:48.041Z,4.17
2019-04-21T16:22:20.972Z,4.17
2019-04-21T16:24:54.628Z,4.40
2019-04-21T16:27:28.035Z,3.70
2019-04-21T16:30:00.007Z,7.23
2019-04-21T16:32:32.200Z,6.13
2019-04-21T16:35:10.473Z,4.53
2019-04-21T16:37:39.522Z,3.70
2019-04-21T16:40:13.794Z,2.27
2019-04-21T16:42:46.324Z,5.13
2019-04-21T16:45:23.081Z,4.30
2019-04-21T16:47:57.509Z,5.07
2019-04-21T16:50:28.174Z,5.93
2019-04-21T16:53:01.776Z,2.73
2019-04-21T16:55:37.126Z,2.00
2019-04-21T16:58:15.278Z,4.00
2019-04-21T17:00:55.649Z,2.30
2019-04-21T17:03:18.860Z,5.03
2019-04-21T17:05:52.015Z,3.23
2019-04-21T17:08:24.051Z,3.93
2019-04-21T17:11:02.925Z,8.97
2019-04-21T17:13:29.645Z,3.43
2019-04-21T17:16:29.599Z,5.70
2019-04-21T17:18:48.867Z,3.83
2019-04-21T17:21:08.750Z,2.97
2019-04-21T17:24:01.998Z,4.40
2019-04-21T17:26:39.042Z,7.40
2019-04-21T17:29:10.438Z,3.40
2019-04-21T17:31:43.636Z,4.63
2019-04-21T17:34:20.099Z,4.07
2019-04-21T17:36:48.737Z,2.50
2019-04-21T17:39:24.910Z,6.63
2019-04-21T17:42:07.031Z,5.67
2019-04-21T17:44:29.703Z,5.63
2019-04-21T17:47:05.545Z,6.23
2019-04-21T17:52:23.895Z,2.80
2019-04-21T17:55:07.605Z,3.93
2019-04-21T17:57:50.090Z,4.93
2019-04-21T18:00:42.037Z,5.90
2019-04-21T18:02:53.205Z,8.03
2019-04-21T18:05:36.298Z,11.73
2019-04-21T18:08:01.314Z,10.80
2019-04-21T18:10:37.323Z,9.93
2019-04-21T18:13:01.409Z,24.67
2019-04-21T18:15:43.566Z,28.40
2019-04-21T18:18:00.659Z,26.87
2019-04-21T18:20:45.739Z,43.83
2019-04-21T18:23:42.084Z,68.63
2019-04-21T18:26:09.993Z,69.53
2019-04-21T18:28:38.712Z,104.57
2019-04-21T18:31:12.272Z,108.27
2019-04-21T18:33:47.872Z,109.77
2019-04-21T18:36:29.268Z,102.73
2019-04-21T18:39:12.278Z,106.47
2019-04-21T18:41:36.436Z,69.07
2019-04-21T18:44:31.954Z,53.33
2019-04-21T18:47:09.559Z,43.87
2019-04-21T18:52:16.094Z,20.73
2019-04-21T18:54:57.576Z,19.10
2019-04-21T18:57:22.821Z,23.90
2019-04-21T18:59:47.721Z,19.83
2019-04-21T19:02:21.812Z,37.20
2019-04-21T19:04:55.867Z,30.90
2019-04-21T19:07:48.668Z,30.93
2019-04-21T19:10:29.678Z,31.77
2019-04-21T19:13:20.319Z,34.50
2019-04-21T19:15:27.750Z,49.20
2019-04-21T19:18:28.286Z,62.93
2019-04-21T19:20:32.852Z,74.80
2019-04-21T19:23:05.574Z,79.50
2019-04-21T19:25:41.308Z,77.10
2019-04-21T19:28:09.730Z,79.53
2019-04-21T19:30:59.001Z,91.07
2019-04-21T19:33:24.348Z,89.80
2019-04-21T19:35:47.563Z,103.53
2019-04-21T19:38:30.191Z,97.50
2019-04-21T19:41:10.335Z,105.50
2019-04-21T19:43:45.975Z,96.80
2019-04-21T19:46:19.078Z,65.67
2019-04-21T19:49:01.224Z,28.10
2019-04-21T19:51:24.871Z,27.57
2019-04-21T19:53:53.743Z,15.30
2019-04-21T19:56:19.597Z,16.43
2019-04-21T19:58:52.963Z,21.63
2019-04-21T20:01:25.477Z,24.67
2019-04-21T20:04:00.801Z,30.20
2019-04-21T20:06:45.422Z,30.27
2019-04-21T20:09:21.875Z,44.03
2019-04-21T20:11:55.030Z,38.53
2019-04-21T20:16:59.417Z,34.83
2019-04-21T20:19:24.761Z,43.43
2019-04-21T20:21:58.993Z,50.83
2019-04-21T20:24:36.424Z,45.77
2019-04-21T20:29:57.571Z,41.00
2019-04-21T20:32:36.702Z,46.17
2019-04-21T20:35:07.064Z,44.97
2019-04-21T20:37:37.839Z,50.23
2019-04-21T20:40:02.235Z,45.63
2019-04-21T20:42:43.593Z,39.90
2019-04-21T20:47:42.424Z,53.13
2019-04-21T20:50:23.488Z,49.10
2019-04-21T20:53:06.047Z,48.50
2019-04-21T20:55:28.751Z,53.63
2019-04-21T20:57:58.256Z,69.77
2019-04-21T21:00:50.777Z,80.27
2019-04-21T21:03:20.955Z,97.97
2019-04-21T21:05:45.128Z,103.73
2019-04-21T21:08:32.744Z,118.97
2019-04-21T21:10:53.231Z,113.63
2019-04-21T21:13:31.978Z,89.33
2019-04-21T21:16:13.772Z,110.17
2019-04-21T21:18:59.587Z,91.60
2019-04-21T21:21:11.132Z,88.60
2019-04-21T21:23:48.024Z,108.33
2019-04-21T21:26:20.106Z,88.73
2019-04-21T21:28:52.031Z,88.93
2019-04-21T21:31:31.273Z,74.20
2019-04-21T21:34:11.888Z,60.57
2019-04-21T21:36:36.495Z,57.37
2019-04-21T21:39:08.692Z,56.40
2019-04-21T21:41:31.790Z,64.97
2019-04-21T21:44:05.805Z,62.37
2019-04-21T21:46:45.633Z,68.10
2019-04-21T21:49:20.722Z,79.00
2019-04-21T21:51:47.412Z,90.43
2019-04-21T21:54:11.707Z,74.40
2019-04-21T21:56:48.545Z,46.37
2019-04-21T21:59:24.389Z,39.77
2019-04-21T22:01:54.892Z,36.73
2019-04-21T22:04:30.718Z,34.30
2019-04-21T22:07:04.467Z,30.63
2019-04-21T22:09:30.384Z,28.00
2019-04-21T22:12:06.280Z,28.93
2019-04-21T22:14:41.690Z,32.13
2019-04-21T22:17:24.729Z,47.90
2019-04-21T22:20:13.463Z,54.57
2019-04-21T22:22:31.274Z,68.40
2019-04-21T22:25:02.400Z,60.37
2019-04-21T22:27:25.334Z,61.50
2019-04-21T22:30:01.373Z,67.63
2019-04-21T22:32:33.152Z,58.27
2019-04-21T22:35:07.570Z,59.97
2019-04-21T22:37:47.410Z,58.67
2019-04-21T22:40:20.545Z,60.03
2019-04-21T22:42:54.986Z,52.33
2019-04-21T22:45:19.620Z,52.33
2019-04-21T22:47:56.269Z,48.90
2019-04-21T22:50:30.750Z,50.20
2019-04-21T22:53:07.513Z,53.13
2019-04-21T22:55:35.302Z,50.97
2019-04-21T22:58:07.666Z,49.10
2019-04-21T23:00:46.431Z,50.37
2019-04-21T23:03:16.405Z,53.07
2019-04-21T23:05:46.970Z,64.63
2019-04-21T23:08:27.944Z,60.63
2019-04-21T23:10:59.260Z,37.50
2019-04-21T23:13:25.978Z,24.63
2019-04-21T23:15:58.794Z,32.20
2019-04-21T23:18:42.207Z,35.40
2019-04-21T23:21:16.343Z,33.20
2019-04-21T23:24:03.184Z,42.00
2019-04-21T23:26:34.850Z,35.50
2019-04-21T23:29:10.953Z,33.33
2019-04-21T23:31:42.739Z,29.53
2019-04-21T23:33:54.619Z,31.70
2019-04-21T23:36:29.675Z,32.03
2019-04-21T23:38:58.490Z,18.70
2019-04-21T23:41:36.063Z,14.83
2019-04-21T23:44:04.500Z,14.60
2019-04-21T23:46:35.258Z,10.77
2019-04-21T23:49:18.566Z,14.70
2019-04-21T23:54:15.486Z,17.37
2019-04-21T23:56:49.498Z,14.03
2019-04-21T23:59:20.807Z,17.63
